Time;durP1;ratioP1;P1;durP2;ratioP2;P2;SDS_P1;SDS_P2;PMS_P1;PMS_P2;Temp;Humidity;BMP_temperature;BMP_pressure;BME280_temperature;BME280_humidity;BME280_pressure;Samples;Min_cycle;Max_cycle;Signal;HPM_P1;HPM_P2
2024/01/20 00:02:12;;;;;;;17.77;15.83;;;;;;;;;;4950170;28;20218;-88
2024/01/20 00:04:40;;;;;;;24.20;16.37;;;;;;;;;;4963811;28;20222;-88
2024/01/20 00:07:07;;;;;;;16.83;15.13;;;;;;;;;;4937876;28;20211;-86
2024/01/20 00:09:33;;;;;;;20.90;17.63;;;;;;;;;;4942388;28;20242;-87
2024/01/20 00:12:01;;;;;;;18.57;15.07;;;;;;;;;;4973371;28;20232;-87
2024/01/20 00:14:26;;;;;;;16.30;14.40;;;;;;;;;;4986865;28;20229;-86
2024/01/20 00:16:52;;;;;;;18.40;15.53;;;;;;;;;;4959142;28;20223;-88
2024/01/20 00:19:20;;;;;;;17.60;14.07;;;;;;;;;;4957595;28;20746;-88
2024/01/20 00:21:48;;;;;;;21.83;14.83;;;;;;;;;;4962934;28;20222;-87
2024/01/20 00:24:13;;;;;;;17.50;14.63;;;;;;;;;;4966436;28;20213;-87
2024/01/20 00:26:42;;;;;;;21.20;12.47;;;;;;;;;;4971927;28;20241;-85
2024/01/20 00:29:10;;;;;;;16.77;15.10;;;;;;;;;;4975887;28;20246;-86
2024/01/20 00:31:39;;;;;;;17.13;14.50;;;;;;;;;;4977194;28;20228;-84
2024/01/20 00:34:04;;;;;;;15.70;13.93;;;;;;;;;;4972066;28;20222;-87
2024/01/20 00:36:30;;;;;;;17.00;13.43;;;;;;;;;;4959418;28;20738;-87
2024/01/20 00:38:58;;;;;;;16.03;14.33;;;;;;;;;;4964059;28;20304;-87
2024/01/20 00:41:23;;;;;;;20.13;15.60;;;;;;;;;;4945336;28;20222;-87
2024/01/20 00:43:49;;;;;;;17.43;15.43;;;;;;;;;;4966161;28;20242;-88
2024/01/20 00:46:15;;;;;;;16.93;15.13;;;;;;;;;;4933011;28;20211;-87
2024/01/20 00:48:42;;;;;;;18.90;16.07;;;;;;;;;;4963464;28;20445;-85
2024/01/20 00:51:08;;;;;;;17.00;15.23;;;;;;;;;;4977314;28;20295;-87
2024/01/20 00:53:33;;;;;;;20.70;14.70;;;;;;;;;;4964146;28;20226;-86
2024/01/20 00:55:59;;;;;;;20.73;17.23;;;;;;;;;;4975996;28;20226;-87
2024/01/20 00:58:24;;;;;;;19.67;16.53;;;;;;;;;;4941611;28;20296;-87
2024/01/20 01:00:50;;;;;;;18.33;16.43;;;;;;;;;;4964211;28;20222;-87
2024/01/20 01:03:17;;;;;;;21.33;16.53;;;;;;;;;;4963749;28;20253;-86
2024/01/20 01:05:45;;;;;;;18.90;16.90;;;;;;;;;;4946301;28;20230;-88
2024/01/20 01:08:15;;;;;;;19.17;17.17;;;;;;;;;;4967905;28;20262;-85
2024/01/20 01:10:41;;;;;;;18.53;16.57;;;;;;;;;;4951417;28;20284;-85
2024/01/20 01:13:07;;;;;;;24.30;16.90;;;;;;;;;;4974513;28;21071;-86
2024/01/20 01:15:37;;;;;;;18.83;16.83;;;;;;;;;;4966313;28;20238;-88
2024/01/20 01:18:03;;;;;;;21.00;18.03;;;;;;;;;;4946042;28;20810;-87
2024/01/20 01:20:31;;;;;;;21.63;18.47;;;;;;;;;;4971850;28;20253;-86
2024/01/20 01:23:02;;;;;;;17.77;15.77;;;;;;;;;;4973620;28;20593;-84
2024/01/20 01:25:29;;;;;;;20.03;17.90;;;;;;;;;;4991203;28;20881;-85
2024/01/20 01:27:55;;;;;;;18.87;16.77;;;;;;;;;;4979234;28;20214;-86
2024/01/20 01:30:20;;;;;;;25.07;19.23;;;;;;;;;;4954719;28;20568;-88
2024/01/20 01:32:46;;;;;;;18.57;16.63;;;;;;;;;;4963390;28;20214;-86
2024/01/20 01:35:14;;;;;;;21.23;18.93;;;;;;;;;;4961188;28;20866;-86
2024/01/20 01:37:42;;;;;;;21.80;18.70;;;;;;;;;;4982684;28;20257;-87
2024/01/20 01:40:10;;;;;;;24.50;19.10;;;;;;;;;;4951311;28;20905;-85
2024/01/20 01:42:38;;;;;;;19.83;17.77;;;;;;;;;;4981169;28;20257;-85
2024/01/20 01:45:06;;;;;;;18.17;16.37;;;;;;;;;;4980196;28;20218;-85
2024/01/20 01:47:34;;;;;;;21.07;18.83;;;;;;;;;;4954759;28;20238;-87
2024/01/20 01:50:02;;;;;;;20.83;18.60;;;;;;;;;;4971767;28;20707;-86
2024/01/20 01:52:29;;;;;;;23.30;20.80;;;;;;;;;;4939604;28;20226;-87
2024/01/20 01:54:55;;;;;;;21.13;18.93;;;;;;;;;;4966269;28;20301;-86
2024/01/20 01:57:20;;;;;;;21.77;19.57;;;;;;;;;;4953020;28;20877;-88
2024/01/20 01:59:48;;;;;;;23.53;20.37;;;;;;;;;;4964311;28;20236;-89
2024/01/20 02:02:14;;;;;;;21.60;19.27;;;;;;;;;;4960777;28;20215;-88
2024/01/20 02:04:39;;;;;;;28.33;19.33;;;;;;;;;;4973839;28;20280;-85
2024/01/20 02:07:07;;;;;;;20.93;18.73;;;;;;;;;;4947123;28;20268;-89
2024/01/20 02:09:35;;;;;;;25.23;20.30;;;;;;;;;;4950597;28;20777;-84
2024/01/20 02:12:03;;;;;;;24.70;20.00;;;;;;;;;;4967379;28;20229;-88
2024/01/20 02:14:29;;;;;;;22.40;20.17;;;;;;;;;;4942886;28;20305;-88
2024/01/20 02:16:59;;;;;;;21.87;19.63;;;;;;;;;;4960343;28;20316;-86
2024/01/20 02:19:24;;;;;;;23.63;20.47;;;;;;;;;;4966439;28;20650;-88
2024/01/20 02:21:50;;;;;;;23.17;20.67;;;;;;;;;;4968510;28;20974;-86
2024/01/20 02:24:18;;;;;;;24.33;21.53;;;;;;;;;;4967804;28;20625;-86
2024/01/20 02:26:43;;;;;;;24.43;21.37;;;;;;;;;;4971529;28;20226;-88
2024/01/20 02:29:12;;;;;;;27.40;21.70;;;;;;;;;;4948072;28;20684;-87
2024/01/20 02:31:44;;;;;;;22.57;20.23;;;;;;;;;;4963176;28;20688;-87
2024/01/20 02:34:14;;;;;;;26.00;23.37;;;;;;;;;;4951151;28;20234;-87
2024/01/20 02:36:40;;;;;;;26.87;19.97;;;;;;;;;;4965069;28;20235;-87
2024/01/20 02:39:06;;;;;;;25.63;22.83;;;;;;;;;;4969564;28;20228;-89
2024/01/20 02:41:31;;;;;;;26.43;22.33;;;;;;;;;;4957329;28;20262;-85
2024/01/20 02:43:57;;;;;;;29.77;21.30;;;;;;;;;;4968105;28;20215;-85
2024/01/20 02:46:27;;;;;;;22.33;20.13;;;;;;;;;;4953776;28;20221;-88
2024/01/20 02:48:52;;;;;;;23.33;20.77;;;;;;;;;;4971262;28;20226;-85
2024/01/20 02:51:20;;;;;;;25.00;22.47;;;;;;;;;;4971198;28;20254;-87
2024/01/20 02:53:48;;;;;;;23.93;21.37;;;;;;;;;;4969011;28;20611;-88
2024/01/20 02:56:13;;;;;;;25.07;22.00;;;;;;;;;;4963597;28;20277;-86
2024/01/20 02:58:41;;;;;;;21.77;18.80;;;;;;;;;;4967270;28;20245;-87
2024/01/20 03:01:11;;;;;;;23.50;21.07;;;;;;;;;;4960409;28;20621;-86
2024/01/20 03:03:39;;;;;;;27.93;24.17;;;;;;;;;;4973608;28;20218;-87
2024/01/20 03:06:07;;;;;;;30.73;23.80;;;;;;;;;;4969816;28;20214;-87
2024/01/20 03:08:32;;;;;;;21.27;18.97;;;;;;;;;;4978720;28;20237;-89
2024/01/20 03:10:58;;;;;;;25.60;23.00;;;;;;;;;;4971728;28;20225;-87
2024/01/20 03:13:28;;;;;;;26.13;23.20;;;;;;;;;;4970947;28;20232;-87
2024/01/20 03:15:54;;;;;;;27.73;22.77;;;;;;;;;;4968256;28;20260;-85
2024/01/20 03:18:19;;;;;;;28.43;21.47;;;;;;;;;;4969583;28;20223;-87
2024/01/20 03:20:49;;;;;;;30.97;23.23;;;;;;;;;;4960053;28;20223;-86
2024/01/20 03:23:20;;;;;;;28.23;22.90;;;;;;;;;;4971712;28;20301;-86
2024/01/20 03:25:48;;;;;;;25.60;23.00;;;;;;;;;;4964733;28;20704;-87
2024/01/20 03:28:13;;;;;;;21.70;19.17;;;;;;;;;;4969203;28;20260;-85
2024/01/20 03:30:39;;;;;;;25.47;22.70;;;;;;;;;;4962688;28;20272;-84
2024/01/20 03:33:07;;;;;;;24.60;21.60;;;;;;;;;;4960448;28;20230;-86
2024/01/20 03:35:32;;;;;;;26.53;22.10;;;;;;;;;;4960542;28;20241;-87
2024/01/20 03:37:58;;;;;;;25.77;22.97;;;;;;;;;;4971014;28;20214;-85
2024/01/20 03:40:23;;;;;;;29.63;22.60;;;;;;;;;;4964580;28;20760;-85
2024/01/20 03:42:49;;;;;;;24.63;22.03;;;;;;;;;;4966828;28;20222;-87
2024/01/20 03:45:14;;;;;;;24.40;21.80;;;;;;;;;;4952077;28;20671;-86
2024/01/20 03:47:40;;;;;;;32.43;23.23;;;;;;;;;;4951375;28;20683;-86
2024/01/20 03:50:06;;;;;;;25.90;23.10;;;;;;;;;;4968767;28;20667;-87
2024/01/20 03:52:34;;;;;;;25.40;22.00;;;;;;;;;;4962551;28;20963;-85
2024/01/20 03:55:04;;;;;;;24.30;21.03;;;;;;;;;;4949495;28;20222;-85
2024/01/20 03:57:32;;;;;;;23.67;20.77;;;;;;;;;;4963938;28;20832;-88
2024/01/20 04:03:45;;;;;;;20.23;16.77;;;;;;;;;;4977482;28;20237;-86
2024/01/20 04:06:10;;;;;;;24.70;22.13;;;;;;;;;;4987876;28;20222;-85
2024/01/20 04:08:36;;;;;;;22.53;20.10;;;;;;;;;;4958532;28;20226;-87
2024/01/20 04:11:03;;;;;;;29.17;21.93;;;;;;;;;;4948551;28;20230;-87
2024/01/20 04:13:31;;;;;;;24.13;21.60;;;;;;;;;;4982060;28;20225;-86
2024/01/20 04:15:59;;;;;;;28.53;23.27;;;;;;;;;;4959644;28;20261;-85
2024/01/20 04:18:24;;;;;;;22.93;20.13;;;;;;;;;;4983903;28;20210;-86
2024/01/20 04:20:50;;;;;;;28.73;23.20;;;;;;;;;;4946110;28;20602;-86
2024/01/20 04:23:15;;;;;;;26.97;20.07;;;;;;;;;;4948203;28;20225;-85
2024/01/20 04:25:41;;;;;;;25.17;22.20;;;;;;;;;;4965722;28;20282;-85
2024/01/20 04:28:06;;;;;;;26.43;21.13;;;;;;;;;;4992575;28;20211;-86
2024/01/20 04:30:34;;;;;;;29.70;20.10;;;;;;;;;;4957639;28;20253;-87
2024/01/20 04:33:00;;;;;;;24.20;20.33;;;;;;;;;;4965682;28;20249;-86
2024/01/20 04:35:25;;;;;;;24.70;19.60;;;;;;;;;;4949934;28;20285;-86
2024/01/20 04:37:55;;;;;;;26.27;21.20;;;;;;;;;;4967981;28;20210;-83
2024/01/20 04:40:24;;;;;;;25.90;20.73;;;;;;;;;;4988781;28;20232;-84
2024/01/20 04:42:49;;;;;;;23.27;19.63;;;;;;;;;;4987177;28;20247;-88
2024/01/20 04:45:15;;;;;;;25.23;19.20;;;;;;;;;;4965383;28;20590;-88
2024/01/20 04:47:43;;;;;;;27.87;19.97;;;;;;;;;;4998874;28;20317;-87
2024/01/20 04:50:09;;;;;;;25.60;18.80;;;;;;;;;;4988292;28;20230;-88
2024/01/20 04:52:39;;;;;;;24.13;20.07;;;;;;;;;;4973189;28;20246;-80
2024/01/20 04:55:04;;;;;;;29.43;20.37;;;;;;;;;;4988120;28;20380;-76
2024/01/20 04:57:30;;;;;;;25.73;19.70;;;;;;;;;;4988144;28;20802;-80
2024/01/20 04:59:55;;;;;;;20.90;18.67;;;;;;;;;;4960246;28;20230;-79
2024/01/20 05:02:21;;;;;;;22.67;19.70;;;;;;;;;;4961156;28;20634;-78
2024/01/20 05:04:49;;;;;;;26.37;20.17;;;;;;;;;;4967608;28;20229;-78
2024/01/20 05:07:14;;;;;;;24.07;19.53;;;;;;;;;;4966260;28;20222;-79
2024/01/20 05:09:40;;;;;;;24.53;20.40;;;;;;;;;;4973799;28;20238;-78
2024/01/20 05:12:10;;;;;;;25.03;18.70;;;;;;;;;;4964375;28;20244;-76
2024/01/20 05:14:35;;;;;;;19.73;17.70;;;;;;;;;;4954959;28;20243;-79
2024/01/20 05:17:03;;;;;;;20.80;17.63;;;;;;;;;;4990854;28;20248;-80
2024/01/20 05:19:33;;;;;;;22.33;17.67;;;;;;;;;;4961734;28;20234;-77
2024/01/20 05:21:58;;;;;;;27.30;19.77;;;;;;;;;;4968262;28;20230;-78
2024/01/20 05:24:24;;;;;;;21.40;17.00;;;;;;;;;;4978767;28;20237;-79
2024/01/20 05:26:49;;;;;;;23.27;19.37;;;;;;;;;;4963020;28;20280;-77
2024/01/20 05:29:15;;;;;;;24.17;20.13;;;;;;;;;;4961112;28;21169;-78
2024/01/20 05:31:45;;;;;;;23.33;20.43;;;;;;;;;;4960574;28;20244;-79
2024/01/20 05:34:13;;;;;;;20.70;17.70;;;;;;;;;;4965995;28;20299;-78
2024/01/20 05:36:39;;;;;;;24.23;20.60;;;;;;;;;;4988831;28;20259;-78
2024/01/20 05:39:06;;;;;;;31.67;20.47;;;;;;;;;;4953172;28;20230;-79
2024/01/20 05:41:34;;;;;;;25.20;20.03;;;;;;;;;;4950278;28;20718;-77
2024/01/20 05:44:02;;;;;;;28.97;20.77;;;;;;;;;;4972221;28;20583;-78
2024/01/20 05:46:30;;;;;;;22.50;18.57;;;;;;;;;;4947318;28;20257;-78
2024/01/20 05:48:56;;;;;;;28.30;21.80;;;;;;;;;;4961830;28;20229;-78
2024/01/20 05:51:21;;;;;;;21.83;17.70;;;;;;;;;;4960282;28;20250;-78
2024/01/20 05:53:47;;;;;;;25.40;20.13;;;;;;;;;;4972342;28;20228;-76
2024/01/20 05:56:12;;;;;;;24.77;19.97;;;;;;;;;;4968983;28;20748;-78
2024/01/20 05:58:38;;;;;;;26.63;20.63;;;;;;;;;;4953824;28;20696;-78
2024/01/20 06:01:04;;;;;;;25.63;21.10;;;;;;;;;;4979080;28;20229;-78
2024/01/20 06:03:29;;;;;;;27.67;20.13;;;;;;;;;;4948871;28;20297;-78
2024/01/20 06:05:58;;;;;;;27.27;19.67;;;;;;;;;;4964012;28;20235;-76
2024/01/20 06:08:23;;;;;;;30.23;18.80;;;;;;;;;;4944455;28;20253;-77
2024/01/20 06:10:50;;;;;;;27.93;20.33;;;;;;;;;;4960998;28;20602;-79
2024/01/20 06:13:15;;;;;;;26.30;21.40;;;;;;;;;;4964158;28;20357;-79
2024/01/20 06:15:43;;;;;;;28.23;21.77;;;;;;;;;;4962839;28;20242;-77
2024/01/20 06:18:11;;;;;;;25.87;19.33;;;;;;;;;;4963440;28;20244;-78
2024/01/20 06:20:37;;;;;;;27.43;20.37;;;;;;;;;;4987999;28;20223;-78
2024/01/20 06:23:02;;;;;;;28.83;20.40;;;;;;;;;;4963066;28;20353;-78
2024/01/20 06:25:28;;;;;;;25.10;19.93;;;;;;;;;;4973516;28;20218;-78
2024/01/20 06:27:53;;;;;;;27.97;21.77;;;;;;;;;;4960325;28;20228;-76
2024/01/20 06:30:19;;;;;;;25.97;22.10;;;;;;;;;;4990094;28;20226;-78
2024/01/20 06:32:45;;;;;;;27.13;22.33;;;;;;;;;;4974844;28;20535;-77
2024/01/20 06:35:13;;;;;;;24.57;20.17;;;;;;;;;;4964707;28;20244;-78
2024/01/20 06:37:39;;;;;;;23.80;19.07;;;;;;;;;;4965223;28;20234;-77
2024/01/20 06:40:08;;;;;;;30.33;22.60;;;;;;;;;;4961263;28;20298;-78
2024/01/20 06:42:36;;;;;;;31.13;21.97;;;;;;;;;;4965011;28;20233;-78
2024/01/20 06:45:01;;;;;;;29.97;22.90;;;;;;;;;;4964954;28;20226;-77
2024/01/20 06:47:27;;;;;;;27.13;21.77;;;;;;;;;;4963754;28;20602;-77
2024/01/20 06:49:55;;;;;;;32.60;20.23;;;;;;;;;;4971513;28;20241;-77
2024/01/20 06:52:20;;;;;;;31.97;23.63;;;;;;;;;;4984549;28;20249;-76
2024/01/20 06:54:48;;;;;;;28.33;20.70;;;;;;;;;;4958134;28;20265;-78
2024/01/20 06:57:14;;;;;;;26.27;18.93;;;;;;;;;;4958818;28;20242;-78
2024/01/20 06:59:39;;;;;;;28.17;23.00;;;;;;;;;;4968539;28;20236;-78
2024/01/20 07:02:05;;;;;;;29.50;22.23;;;;;;;;;;4968388;28;20228;-77
2024/01/20 07:04:31;;;;;;;30.97;23.03;;;;;;;;;;4987314;28;20229;-78
2024/01/20 07:06:56;;;;;;;35.33;22.23;;;;;;;;;;4971840;28;20386;-77
2024/01/20 07:09:22;;;;;;;28.47;21.50;;;;;;;;;;4963822;28;20972;-77
2024/01/20 07:11:53;;;;;;;29.03;20.87;;;;;;;;;;4968076;28;20239;-79
2024/01/20 07:14:23;;;;;;;31.03;22.13;;;;;;;;;;4987901;28;20233;-77
2024/01/20 07:16:51;;;;;;;28.43;21.27;;;;;;;;;;4946972;28;20696;-77
2024/01/20 07:19:16;;;;;;;31.23;22.43;;;;;;;;;;4964744;28;21054;-77
2024/01/20 07:21:44;;;;;;;28.87;22.90;;;;;;;;;;4964146;28;20230;-77
2024/01/20 07:24:13;;;;;;;32.37;23.37;;;;;;;;;;4990638;28;20215;-77
2024/01/20 07:26:38;;;;;;;25.77;20.70;;;;;;;;;;4964303;28;20230;-78
2024/01/20 07:29:04;;;;;;;31.53;24.53;;;;;;;;;;4975126;28;20693;-79
2024/01/20 07:31:32;;;;;;;26.77;19.50;;;;;;;;;;4990696;28;20230;-78
2024/01/20 07:33:59;;;;;;;27.37;21.07;;;;;;;;;;4987044;28;20234;-77
2024/01/20 07:36:25;;;;;;;28.50;22.33;;;;;;;;;;4959401;28;20225;-78
2024/01/20 07:38:51;;;;;;;29.23;21.07;;;;;;;;;;4968291;28;20261;-79
2024/01/20 07:41:16;;;;;;;27.77;18.90;;;;;;;;;;4973110;28;20282;-77
2024/01/20 07:43:44;;;;;;;27.30;23.30;;;;;;;;;;4964728;28;20615;-77
2024/01/20 07:46:12;;;;;;;32.80;22.77;;;;;;;;;;4976262;28;20229;-77
2024/01/20 07:48:40;;;;;;;29.47;20.93;;;;;;;;;;4965155;28;20245;-76
2024/01/20 07:51:06;;;;;;;23.40;19.00;;;;;;;;;;4977446;28;20237;-76
2024/01/20 07:53:31;;;;;;;37.30;22.70;;;;;;;;;;4954026;28;20226;-78
2024/01/20 07:55:57;;;;;;;32.97;22.93;;;;;;;;;;4967454;28;20240;-78
2024/01/20 07:58:27;;;;;;;31.20;24.57;;;;;;;;;;4943480;28;23240;-76
2024/01/20 08:00:55;;;;;;;32.50;20.53;;;;;;;;;;4962377;28;20708;-77
2024/01/20 08:03:23;;;;;;;29.50;23.53;;;;;;;;;;4960384;28;20367;-77
2024/01/20 08:05:49;;;;;;;31.10;23.33;;;;;;;;;;4964948;28;20249;-78
2024/01/20 08:08:14;;;;;;;30.80;23.57;;;;;;;;;;4963192;28;20229;-77
2024/01/20 08:10:39;;;;;;;31.27;20.67;;;;;;;;;;4963816;28;20237;-76
2024/01/20 08:13:05;;;;;;;29.50;23.10;;;;;;;;;;4967502;28;20234;-77
2024/01/20 08:15:31;;;;;;;29.07;22.63;;;;;;;;;;4974600;28;20241;-76
2024/01/20 08:17:56;;;;;;;30.93;22.87;;;;;;;;;;4976680;28;20226;-77
2024/01/20 08:20:25;;;;;;;33.73;22.10;;;;;;;;;;4978502;28;20267;-77
2024/01/20 08:22:53;;;;;;;28.20;22.10;;;;;;;;;;4985797;28;20236;-78
2024/01/20 08:25:21;;;;;;;33.27;23.77;;;;;;;;;;4973275;28;20230;-78
2024/01/20 08:27:52;;;;;;;29.30;18.60;;;;;;;;;;4957573;28;20332;-76
2024/01/20 08:30:17;;;;;;;27.80;20.17;;;;;;;;;;4975190;28;20237;-76
2024/01/20 08:32:45;;;;;;;32.73;23.43;;;;;;;;;;4996395;28;20574;-77
2024/01/20 08:35:14;;;;;;;28.63;21.87;;;;;;;;;;4981961;28;20315;-77
2024/01/20 08:37:39;;;;;;;25.20;20.87;;;;;;;;;;4959202;28;20289;-77
2024/01/20 08:40:06;;;;;;;26.60;18.83;;;;;;;;;;4972938;28;20236;-76
2024/01/20 08:42:31;;;;;;;27.43;20.50;;;;;;;;;;4995553;28;20249;-77
2024/01/20 08:44:57;;;;;;;34.43;23.37;;;;;;;;;;4974750;28;20230;-77
2024/01/20 08:47:27;;;;;;;30.80;22.77;;;;;;;;;;4971991;28;20226;-77
2024/01/20 08:49:52;;;;;;;28.60;23.33;;;;;;;;;;4974660;28;20284;-76
2024/01/20 08:52:20;;;;;;;28.17;22.23;;;;;;;;;;4961814;28;20222;-77
2024/01/20 08:54:48;;;;;;;24.87;19.03;;;;;;;;;;4961982;28;20218;-77
2024/01/20 08:57:14;;;;;;;28.67;21.23;;;;;;;;;;4975772;28;20238;-77
2024/01/20 08:59:39;;;;;;;28.43;21.40;;;;;;;;;;4956802;28;20606;-76
2024/01/20 09:02:05;;;;;;;28.43;20.43;;;;;;;;;;4966164;28;20655;-76
2024/01/20 09:04:31;;;;;;;25.87;18.70;;;;;;;;;;4966929;28;20678;-77
2024/01/20 09:06:59;;;;;;;25.70;19.20;;;;;;;;;;4967169;28;20233;-77
2024/01/20 09:09:27;;;;;;;26.03;20.80;;;;;;;;;;4969688;28;20234;-78
2024/01/20 09:11:55;;;;;;;25.93;20.23;;;;;;;;;;4969254;28;20414;-78
2024/01/20 09:14:20;;;;;;;26.63;20.30;;;;;;;;;;4979666;28;20222;-78
2024/01/20 09:16:50;;;;;;;22.80;19.37;;;;;;;;;;4967200;28;20782;-77
2024/01/20 09:19:16;;;;;;;21.47;16.97;;;;;;;;;;4954729;28;20237;-78
2024/01/20 09:21:45;;;;;;;26.63;19.07;;;;;;;;;;4963465;28;20226;-77
2024/01/20 09:24:10;;;;;;;27.17;18.17;;;;;;;;;;4985333;28;20222;-77
2024/01/20 09:26:36;;;;;;;21.90;16.47;;;;;;;;;;4985318;28;20694;-79
2024/01/20 09:29:01;;;;;;;17.87;15.60;;;;;;;;;;4989957;28;20222;-77
2024/01/20 09:31:27;;;;;;;24.50;16.13;;;;;;;;;;4966278;28;20277;-79
2024/01/20 09:33:53;;;;;;;23.33;15.30;;;;;;;;;;4969300;28;20753;-78
2024/01/20 09:36:18;;;;;;;19.63;15.93;;;;;;;;;;4978470;28;20234;-77
2024/01/20 09:38:46;;;;;;;20.50;15.00;;;;;;;;;;4991458;28;20236;-75
2024/01/20 09:41:16;;;;;;;19.83;15.80;;;;;;;;;;4966862;28;20269;-78
2024/01/20 09:43:42;;;;;;;21.90;15.37;;;;;;;;;;4978127;28;20710;-76
2024/01/20 09:46:09;;;;;;;17.00;14.27;;;;;;;;;;4960611;28;20218;-77
2024/01/20 09:48:35;;;;;;;20.57;14.90;;;;;;;;;;4975537;28;20230;-77
2024/01/20 09:51:00;;;;;;;20.00;15.43;;;;;;;;;;4950092;28;20448;-78
2024/01/20 09:53:26;;;;;;;18.13;14.93;;;;;;;;;;4953262;28;20747;-79
2024/01/20 09:55:52;;;;;;;17.07;12.80;;;;;;;;;;4954632;28;20595;-79
2024/01/20 09:58:17;;;;;;;19.00;15.23;;;;;;;;;;4943639;28;20222;-77
2024/01/20 10:00:43;;;;;;;18.17;14.20;;;;;;;;;;4970106;28;20783;-77
2024/01/20 10:03:10;;;;;;;13.60;12.17;;;;;;;;;;4962795;28;20696;-76
2024/01/20 10:05:36;;;;;;;12.83;10.43;;;;;;;;;;4964291;28;20233;-79
2024/01/20 10:08:06;;;;;;;16.63;13.33;;;;;;;;;;4965717;28;20241;-77
2024/01/20 10:10:32;;;;;;;16.67;12.50;;;;;;;;;;4965149;28;20234;-78
2024/01/20 10:13:02;;;;;;;16.20;11.43;;;;;;;;;;4967010;28;20222;-78
2024/01/20 10:15:31;;;;;;;13.67;11.40;;;;;;;;;;4968843;28;20794;-78
2024/01/20 10:17:57;;;;;;;17.93;12.60;;;;;;;;;;4967769;28;20273;-78
2024/01/20 10:20:35;;;;;;;15.60;13.33;;;;;;;;;;4966665;28;25275;-78
2024/01/20 10:23:05;;;;;;;17.70;12.73;;;;;;;;;;4965463;28;20277;-78
2024/01/20 10:25:33;;;;;;;18.93;12.80;;;;;;;;;;4964968;28;20534;-79
2024/01/20 10:28:00;;;;;;;17.03;13.47;;;;;;;;;;4991104;28;20222;-79
2024/01/20 10:30:28;;;;;;;18.53;16.57;;;;;;;;;;4963841;28;20249;-79
2024/01/20 10:32:54;;;;;;;14.60;10.87;;;;;;;;;;4972653;28;20226;-78
2024/01/20 10:35:19;;;;;;;18.67;14.17;;;;;;;;;;4966201;28;20300;-78
2024/01/20 10:37:50;;;;;;;18.00;13.17;;;;;;;;;;4967821;28;20226;-79
2024/01/20 10:40:16;;;;;;;17.47;13.37;;;;;;;;;;4967078;28;20222;-78
2024/01/20 10:42:49;;;;;;;19.23;13.97;;;;;;;;;;4953006;28;20256;-77
2024/01/20 10:45:23;;;;;;;17.53;13.23;;;;;;;;;;4978635;28;20241;-77
2024/01/20 10:48:06;;;;;;;18.97;14.23;;;;;;;;;;4952145;28;20225;-76
2024/01/20 10:50:32;;;;;;;20.67;13.90;;;;;;;;;;4961008;28;20747;-77
2024/01/20 10:52:57;;;;;;;21.83;14.60;;;;;;;;;;4947004;28;20245;-77
2024/01/20 10:55:24;;;;;;;17.37;12.70;;;;;;;;;;4938917;28;20237;-75
2024/01/20 10:57:49;;;;;;;17.50;15.20;;;;;;;;;;4950816;28;20218;-76
2024/01/20 11:00:17;;;;;;;19.17;15.17;;;;;;;;;;4945701;28;20233;-78
2024/01/20 11:02:43;;;;;;;20.30;14.93;;;;;;;;;;4962658;28;20758;-79
2024/01/20 11:05:20;;;;;;;18.57;12.93;;;;;;;;;;4961870;28;20221;-76
2024/01/20 11:07:56;;;;;;;17.50;13.90;;;;;;;;;;4968146;28;20266;-76
2024/01/20 11:10:24;;;;;;;19.43;14.57;;;;;;;;;;4959733;28;20226;-77
2024/01/20 11:13:06;;;;;;;13.87;12.37;;;;;;;;;;4956803;28;20715;-79
2024/01/20 11:15:32;;;;;;;15.13;12.37;;;;;;;;;;4952140;28;20222;-80
2024/01/20 11:17:58;;;;;;;13.40;11.97;;;;;;;;;;4949997;28;20222;-79
2024/01/20 11:20:24;;;;;;;15.13;13.50;;;;;;;;;;4969695;28;20326;-78
2024/01/20 11:22:49;;;;;;;18.23;11.77;;;;;;;;;;4965116;28;20249;-78
2024/01/20 11:25:17;;;;;;;16.23;13.10;;;;;;;;;;4950080;28;20245;-78
2024/01/20 11:27:58;;;;;;;15.37;12.77;;;;;;;;;;4952400;28;20280;-78
2024/01/20 11:30:27;;;;;;;14.97;13.37;;;;;;;;;;4958818;28;20257;-79
2024/01/20 11:32:54;;;;;;;17.10;13.40;;;;;;;;;;4981479;28;20222;-77
2024/01/20 11:35:20;;;;;;;17.63;13.73;;;;;;;;;;4962805;28;20295;-79
2024/01/20 11:37:45;;;;;;;19.07;13.40;;;;;;;;;;4958159;28;20222;-79
2024/01/20 11:40:13;;;;;;;19.07;14.50;;;;;;;;;;4966844;28;20226;-77
2024/01/20 11:42:39;;;;;;;18.27;12.57;;;;;;;;;;4966024;28;20242;-79
2024/01/20 11:45:05;;;;;;;16.03;12.87;;;;;;;;;;4962363;28;20221;-80
2024/01/20 11:47:33;;;;;;;16.20;12.60;;;;;;;;;;4978232;28;20235;-78
2024/01/20 11:49:58;;;;;;;15.20;12.67;;;;;;;;;;4958897;28;20226;-79
2024/01/20 11:52:25;;;;;;;14.53;12.53;;;;;;;;;;4952336;28;20782;-78
2024/01/20 11:54:50;;;;;;;16.13;14.03;;;;;;;;;;4965166;28;20714;-78
2024/01/20 11:57:26;;;;;;;21.13;13.13;;;;;;;;;;4950797;28;20235;-78
2024/01/20 12:00:00;;;;;;;19.50;14.50;;;;;;;;;;4971873;28;20779;-77
2024/01/20 12:02:27;;;;;;;17.23;13.33;;;;;;;;;;4964328;28;20222;-76
2024/01/20 12:04:56;;;;;;;16.37;14.00;;;;;;;;;;4980491;28;20710;-77
2024/01/20 12:07:22;;;;;;;17.23;13.37;;;;;;;;;;4968680;28;20222;-79
2024/01/20 12:09:50;;;;;;;17.47;13.93;;;;;;;;;;4955163;28;20891;-78
2024/01/20 12:12:19;;;;;;;16.17;13.50;;;;;;;;;;4957222;28;20226;-79
2024/01/20 12:14:45;;;;;;;17.73;14.37;;;;;;;;;;4975498;28;20233;-78
2024/01/20 12:17:13;;;;;;;19.03;13.70;;;;;;;;;;4965653;28;20229;-77
2024/01/20 12:19:43;;;;;;;18.30;13.80;;;;;;;;;;4970416;28;20253;-77
2024/01/20 12:22:10;;;;;;;16.47;13.43;;;;;;;;;;4965843;28;20257;-78
2024/01/20 12:24:37;;;;;;;27.63;14.77;;;;;;;;;;4962007;28;20950;-78
2024/01/20 12:27:04;;;;;;;18.03;14.83;;;;;;;;;;4950105;28;20241;-78
2024/01/20 12:29:29;;;;;;;22.27;18.23;;;;;;;;;;4979266;28;20226;-75
2024/01/20 12:32:01;;;;;;;19.90;16.10;;;;;;;;;;4977060;28;20222;-77
2024/01/20 12:34:27;;;;;;;16.23;13.43;;;;;;;;;;4953120;28;20229;-77
2024/01/20 12:36:58;;;;;;;17.70;15.80;;;;;;;;;;4969445;28;20301;-78
2024/01/20 12:39:24;;;;;;;18.57;15.10;;;;;;;;;;4983437;28;20261;-78
2024/01/20 12:41:51;;;;;;;15.33;13.67;;;;;;;;;;4965823;28;20213;-78
2024/01/20 12:44:17;;;;;;;16.87;14.40;;;;;;;;;;4985561;28;20282;-77
2024/01/20 12:46:43;;;;;;;21.37;14.43;;;;;;;;;;4959013;28;20850;-77
2024/01/20 12:49:10;;;;;;;21.57;15.37;;;;;;;;;;4959260;28;20254;-78
2024/01/20 12:51:41;;;;;;;15.87;14.17;;;;;;;;;;4960822;28;20232;-76
2024/01/20 12:54:07;;;;;;;15.97;13.80;;;;;;;;;;4948124;28;20222;-77
2024/01/20 12:56:34;;;;;;;20.33;14.37;;;;;;;;;;4981936;28;20241;-77
2024/01/20 12:59:03;;;;;;;19.70;14.43;;;;;;;;;;4946297;28;20241;-77
2024/01/20 13:01:28;;;;;;;17.13;14.00;;;;;;;;;;4960115;28;20230;-77
2024/01/20 13:03:58;;;;;;;15.00;13.40;;;;;;;;;;4962565;28;20588;-79
2024/01/20 13:06:24;;;;;;;15.43;13.83;;;;;;;;;;4988827;28;20723;-77
2024/01/20 13:08:50;;;;;;;15.57;13.03;;;;;;;;;;4966925;28;20219;-78
2024/01/20 13:11:20;;;;;;;16.07;13.70;;;;;;;;;;4991400;28;20222;-78
2024/01/20 13:13:47;;;;;;;19.10;13.90;;;;;;;;;;4963723;28;20237;-78
2024/01/20 13:16:13;;;;;;;17.30;12.97;;;;;;;;;;4967679;28;20282;-77
2024/01/20 13:18:40;;;;;;;17.77;14.53;;;;;;;;;;4952481;28;20600;-77
2024/01/20 13:21:08;;;;;;;16.27;14.50;;;;;;;;;;4965157;28;20218;-79
2024/01/20 13:23:34;;;;;;;15.33;13.87;;;;;;;;;;4969983;28;20253;-77
2024/01/20 13:26:00;;;;;;;16.97;13.77;;;;;;;;;;4951586;28;20592;-78
2024/01/20 13:28:28;;;;;;;22.57;14.50;;;;;;;;;;4961043;28;20218;-78
2024/01/20 13:30:53;;;;;;;20.00;13.80;;;;;;;;;;4970648;28;20230;-77
2024/01/20 13:33:19;;;;;;;21.50;15.10;;;;;;;;;;4968516;28;20237;-78
2024/01/20 13:35:48;;;;;;;20.13;13.57;;;;;;;;;;4967421;28;20376;-78
2024/01/20 13:38:13;;;;;;;16.53;14.20;;;;;;;;;;4967501;28;20297;-78
2024/01/20 13:40:40;;;;;;;23.70;15.57;;;;;;;;;;4970754;28;20230;-77
2024/01/20 13:43:10;;;;;;;16.40;13.57;;;;;;;;;;4968983;28;20268;-78
2024/01/20 13:45:36;;;;;;;17.47;14.37;;;;;;;;;;4980669;28;20286;-77
2024/01/20 13:48:05;;;;;;;17.17;14.53;;;;;;;;;;4991874;28;20217;-78
2024/01/20 13:50:33;;;;;;;17.20;13.27;;;;;;;;;;4951097;28;20713;-77
2024/01/20 13:52:58;;;;;;;19.73;16.27;;;;;;;;;;4962796;28;20269;-77
2024/01/20 13:55:24;;;;;;;20.80;14.47;;;;;;;;;;4962895;28;20482;-77
2024/01/20 13:57:50;;;;;;;16.17;13.87;;;;;;;;;;4976983;28;20321;-78
2024/01/20 14:00:20;;;;;;;17.37;15.23;;;;;;;;;;4970828;28;20240;-78
2024/01/20 14:02:46;;;;;;;21.00;15.23;;;;;;;;;;4956062;28;20233;-78
2024/01/20 14:05:15;;;;;;;18.87;15.77;;;;;;;;;;4967194;28;20218;-79
2024/01/20 14:07:41;;;;;;;19.17;15.70;;;;;;;;;;4952087;28;20332;-78
2024/01/20 14:10:07;;;;;;;22.13;15.33;;;;;;;;;;4986974;28;20321;-77
2024/01/20 14:12:32;;;;;;;20.77;15.27;;;;;;;;;;4958012;28;20301;-79
2024/01/20 14:14:58;;;;;;;19.73;14.77;;;;;;;;;;4967679;28;20662;-78
2024/01/20 14:17:24;;;;;;;21.23;15.60;;;;;;;;;;4964899;28;20230;-79
2024/01/20 14:19:50;;;;;;;16.20;14.13;;;;;;;;;;4952684;28;20949;-77